Time;durP1;ratioP1;P1;durP2;ratioP2;P2;SDS_P1;SDS_P2;PMS_P1;PMS_P2;Temp;Humidity;BMP_temperature;BMP_pressure;BME280_temperature;BME280_humidity;BME280_pressure;Samples;Min_cycle;Max_cycle;Signal;HPM_P1;HPM_P2
2022/02/06 00:01:35;;;;;;;9.77;3.17;;;;;;;16.59;59.96;100937.63;4960552;29;20042;-77
2022/02/06 00:04:01;;;;;;;8.63;2.90;;;;;;;16.57;60.63;100928.97;4954104;28;20104;-78
2022/02/06 00:06:28;;;;;;;9.07;3.17;;;;;;;16.58;60.57;100921.19;4983395;28;20477;-78
2022/02/06 00:08:53;;;;;;;9.52;3.67;;;;;;;16.58;60.28;100915.97;4949427;28;20037;-78
2022/02/06 00:11:19;;;;;;;10.20;3.63;;;;;;;16.57;60.32;100913.38;4981467;28;20481;-78
2022/02/06 00:13:44;;;;;;;9.77;3.30;;;;;;;16.56;60.53;100922.91;4949092;28;20054;-78
2022/02/06 00:16:10;;;;;;;10.82;3.38;;;;;;;16.59;60.60;100914.25;4965499;28;20037;-78
2022/02/06 00:18:35;;;;;;;11.35;3.47;;;;;;;16.58;60.38;100897.81;4983062;28;20043;-78
2022/02/06 00:21:06;;;;;;;10.23;3.30;;;;;;;16.58;60.34;100900.41;4963858;29;20027;-79
2022/02/06 00:23:33;;;;;;;10.57;3.50;;;;;;;16.59;60.50;100893.47;4959618;28;20026;-79
2022/02/06 00:26:07;;;;;;;12.35;3.63;;;;;;;16.58;60.46;100894.34;4968977;28;20058;-78
2022/02/06 00:28:39;;;;;;;11.00;3.40;;;;;;;16.58;60.09;100895.19;4966425;28;20038;-78
2022/02/06 00:31:21;;;;;;;10.50;3.20;;;;;;;16.58;60.48;100890.00;4984846;28;20038;-78
2022/02/06 00:34:15;;;;;;;8.52;3.03;;;;;;;16.59;60.50;100885.66;4972378;28;20058;-78
2022/02/06 00:39:16;;;;;;;11.57;3.75;;;;;;;16.58;60.33;100865.75;4984409;28;20045;-78
2022/02/06 00:41:41;;;;;;;7.97;3.33;;;;;;;16.58;60.54;100861.44;4950975;28;20031;-78
2022/02/06 00:44:08;;;;;;;11.70;3.40;;;;;;;16.58;60.40;100857.97;4980796;28;20545;-80
2022/02/06 00:46:39;;;;;;;7.05;3.20;;;;;;;16.58;59.94;100857.97;4966917;28;20031;-78
2022/02/06 00:49:14;;;;;;;12.15;3.55;;;;;;;16.57;60.07;100848.44;4984460;28;20433;-77
2022/02/06 00:54:09;;;;;;;12.13;3.70;;;;;;;16.56;60.40;100852.78;4983929;28;20034;-78
2022/02/06 00:56:34;;;;;;;12.20;3.67;;;;;;;16.58;59.99;100852.78;4951854;28;20051;-78
2022/02/06 00:59:00;;;;;;;9.13;3.42;;;;;;;16.56;60.18;100852.78;4985458;28;20030;-79
2022/02/06 01:01:25;;;;;;;10.73;3.40;;;;;;;16.56;60.34;100831.13;4966296;28;20051;-79
2022/02/06 01:03:53;;;;;;;10.73;3.65;;;;;;;16.57;60.24;100853.63;4965422;29;20030;-78
2022/02/06 01:06:18;;;;;;;8.15;3.08;;;;;;;16.56;60.13;100849.31;4944296;28;20111;-78
2022/02/06 01:08:44;;;;;;;10.50;3.28;;;;;;;16.56;60.14;100833.72;4951429;28;20062;-78
2022/02/06 01:11:11;;;;;;;11.80;3.33;;;;;;;16.56;60.16;100836.34;4942591;28;20031;-78
2022/02/06 01:14:04;;;;;;;10.38;3.70;;;;;;;16.56;60.27;100829.38;4977759;28;20042;-78
2022/02/06 01:16:27;;;;;;;10.18;3.42;;;;;;;16.56;60.02;100825.94;4959604;28;20043;-78
2022/02/06 01:19:01;;;;;;;8.70;3.33;;;;;;;16.57;59.98;100817.25;4969391;28;20441;-78
2022/02/06 01:31:50;;;;;;;8.85;3.45;;;;;;;16.56;59.81;100813.81;4965517;28;20019;-79
2022/02/06 01:34:20;;;;;;;11.40;3.95;;;;;;;16.56;59.95;100810.34;4960467;28;20489;-79
2022/02/06 01:37:03;;;;;;;10.90;3.50;;;;;;;16.55;59.74;100800.81;4965786;28;20034;-79
2022/02/06 01:39:45;;;;;;;9.90;3.40;;;;;;;16.56;60.08;100812.94;4962275;28;20493;-79
2022/02/06 01:42:18;;;;;;;11.70;3.60;;;;;;;16.56;59.99;100798.22;4968800;28;20086;-79
2022/02/06 02:00:55;;;;;;;13.43;3.88;;;;;;;16.55;59.85;100787.81;4964211;28;20035;-79
2022/02/06 02:03:49;;;;;;;12.07;3.50;;;;;;;16.55;59.84;100791.31;4966500;28;20031;-79
2022/02/06 02:28:02;;;;;;;10.23;3.70;;;;;;;16.54;59.42;100732.41;4978404;28;20048;-80
2022/02/06 02:43:49;;;;;;;7.72;3.20;;;;;;;16.54;59.59;100716.84;4962767;28;19925;-80
2022/02/06 02:48:31;;;;;;;10.23;3.55;;;;;;;16.54;59.50;100705.59;4960878;28;20030;-80
2022/02/06 02:51:02;;;;;;;12.57;3.70;;;;;;;16.53;59.40;100704.72;4980265;28;20042;-80
2022/02/06 03:01:15;;;;;;;8.35;3.30;;;;;;;16.52;59.36;100670.97;4968289;28;19914;-79
2022/02/06 03:03:41;;;;;;;9.95;3.35;;;;;;;16.53;59.63;100670.97;4979206;28;20094;-80
2022/02/06 03:06:08;;;;;;;13.27;4.15;;;;;;;16.52;59.17;100661.44;4979877;28;20098;-80
2022/02/06 03:08:36;;;;;;;9.90;3.38;;;;;;;16.53;59.51;100668.38;4979116;28;20030;-80
2022/02/06 03:11:07;;;;;;;10.27;3.42;;;;;;;16.52;59.44;100656.22;4979044;28;20051;-80
2022/02/06 03:16:23;;;;;;;;;;;;;;;16.53;59.35;100657.97;4965993;28;20069;-80
2022/02/06 03:21:20;;;;;;;9.25;3.45;;;;;;;16.53;59.26;100657.13;4979845;28;20117;-80
2022/02/06 03:23:55;;;;;;;8.55;3.30;;;;;;;16.53;59.16;100650.19;4947586;28;20041;-80
2022/02/06 03:26:22;;;;;;;9.80;3.42;;;;;;;16.52;59.29;100650.19;4964343;28;20074;-80
2022/02/06 03:28:49;;;;;;;10.05;3.63;;;;;;;16.52;59.43;100640.66;4963727;28;20510;-80
2022/02/06 03:31:15;;;;;;;11.48;3.75;;;;;;;16.52;59.32;100653.63;4978231;28;20114;-80
2022/02/06 03:33:41;;;;;;;9.65;3.40;;;;;;;16.52;59.15;100637.19;4979605;28;20058;-80
2022/02/06 03:36:07;;;;;;;11.98;3.65;;;;;;;16.53;59.34;100644.13;4961755;28;20081;-79
2022/02/06 03:38:32;;;;;;;9.30;3.38;;;;;;;16.52;58.94;100637.19;4963860;28;20019;-80
2022/02/06 03:41:03;;;;;;;9.00;3.63;;;;;;;16.52;59.08;100638.06;4966170;28;20035;-80
2022/02/06 03:43:55;;;;;;;11.60;3.85;;;;;;;16.52;59.31;100629.41;4965566;28;20512;-80
2022/02/06 03:46:27;;;;;;;9.95;3.85;;;;;;;16.52;59.01;100630.25;4981852;28;20114;-80
2022/02/06 03:49:05;;;;;;;11.25;3.63;;;;;;;16.53;59.32;100625.94;4980159;28;20039;-80
2022/02/06 03:51:33;;;;;;;10.25;3.25;;;;;;;16.53;58.93;100620.75;4979533;28;20033;-80
2022/02/06 03:53:59;;;;;;;9.07;3.35;;;;;;;16.52;59.17;100619.88;4980661;28;20106;-81
2022/02/06 03:56:27;;;;;;;10.32;3.60;;;;;;;16.53;58.97;100626.81;4980131;28;20055;-80
2022/02/06 03:58:52;;;;;;;8.68;3.33;;;;;;;16.53;58.81;100641.53;4963440;28;20089;-79
2022/02/06 04:01:18;;;;;;;10.70;3.53;;;;;;;16.53;59.00;100638.94;4948073;28;20026;-79
2022/02/06 04:03:43;;;;;;;9.88;3.65;;;;;;;16.53;59.09;100620.75;4947813;28;20034;-79
2022/02/06 04:06:09;;;;;;;10.32;3.70;;;;;;;16.52;58.94;100617.28;4979461;28;20035;-78
2022/02/06 04:08:36;;;;;;;7.65;2.78;;;;;;;16.52;58.86;100619.88;4963538;28;20054;-78
2022/02/06 04:11:06;;;;;;;9.65;3.67;;;;;;;16.52;58.86;100609.47;4979326;28;20413;-78
2022/02/06 04:13:35;;;;;;;10.32;3.63;;;;;;;16.52;58.76;100604.28;4979488;28;20023;-79
2022/02/06 04:16:03;;;;;;;7.72;3.13;;;;;;;16.52;58.71;100606.03;4964490;28;20049;-78
2022/02/06 04:18:53;;;;;;;10.05;3.35;;;;;;;16.53;58.85;100605.16;4971613;28;20031;-79
2022/02/06 04:21:15;;;;;;;7.53;3.38;;;;;;;16.53;59.02;100590.44;4988465;28;20516;-79
2022/02/06 04:23:40;;;;;;;11.63;3.47;;;;;;;16.51;58.78;100587.00;4967630;28;20052;-79
2022/02/06 04:26:06;;;;;;;8.63;3.33;;;;;;;16.52;58.71;100580.06;4984806;28;20105;-79
2022/02/06 04:28:31;;;;;;;10.98;3.30;;;;;;;16.52;58.70;100572.25;4987320;28;20023;-80
2022/02/06 04:30:56;;;;;;;10.45;3.33;;;;;;;16.53;58.79;100569.66;4955552;29;20077;-80
2022/02/06 04:33:22;;;;;;;10.20;3.63;;;;;;;16.52;58.86;100562.72;4950660;28;20397;-81
2022/02/06 04:35:50;;;;;;;8.50;3.05;;;;;;;16.51;58.43;100558.41;4970242;28;20141;-80
2022/02/06 05:11:35;;;;;;;12.45;3.33;;;;;;;16.52;58.42;100492.59;4988483;28;20103;-81
2022/02/06 05:19:41;;;;;;;10.82;3.67;;;;;;;16.52;58.02;100487.41;4964959;28;20112;-79
2022/02/06 05:24:56;;;;;;;11.88;3.65;;;;;;;16.52;58.06;100479.59;4971321;28;20357;-79
2022/02/06 05:27:57;;;;;;;8.35;3.15;;;;;;;16.53;58.34;100465.75;4981566;28;20027;-79
2022/02/06 05:30:32;;;;;;;9.85;3.70;;;;;;;16.53;58.14;100472.69;4980270;28;20030;-79
2022/02/06 05:33:00;;;;;;;10.00;3.35;;;;;;;16.52;57.95;100466.63;4963967;28;20038;-79
2022/02/06 05:35:27;;;;;;;8.32;2.97;;;;;;;16.51;58.05;100457.13;4963180;28;20098;-77
2022/02/06 05:37:52;;;;;;;8.35;3.03;;;;;;;16.53;58.20;100470.09;4978716;28;20027;-78
2022/02/06 05:40:18;;;;;;;10.38;3.50;;;;;;;16.52;58.30;100453.63;4979939;28;20086;-77
2022/02/06 05:42:43;;;;;;;7.85;3.33;;;;;;;16.52;57.90;100470.97;4947339;28;20038;-78
2022/02/06 05:45:10;;;;;;;10.60;3.53;;;;;;;16.53;58.16;100454.50;4979119;28;20374;-78
2022/02/06 05:47:35;;;;;;;8.85;3.28;;;;;;;16.52;58.30;100453.63;4962947;28;20030;-79
2022/02/06 05:50:01;;;;;;;8.73;3.15;;;;;;;16.52;58.10;100448.44;4962236;28;20604;-80
2022/02/06 05:52:27;;;;;;;9.30;3.28;;;;;;;16.51;58.00;100436.34;4978602;28;20034;-79
2022/02/06 05:54:52;;;;;;;8.90;2.85;;;;;;;16.51;57.89;100443.28;4961912;28;20027;-80
2022/02/06 05:57:18;;;;;;;10.00;3.30;;;;;;;16.52;57.85;100444.97;4961525;28;20497;-79
2022/02/06 05:59:43;;;;;;;7.97;3.20;;;;;;;16.51;57.89;100433.75;4977801;28;20461;-79
2022/02/06 06:02:09;;;;;;;9.15;3.38;;;;;;;16.52;57.81;100438.03;4978091;28;20035;-80
2022/02/06 06:04:34;;;;;;;9.85;3.35;;;;;;;16.52;57.71;100421.59;4977635;28;20041;-80
2022/02/06 06:07:02;;;;;;;7.88;3.05;;;;;;;16.51;58.03;100415.56;4963098;28;20030;-80
2022/02/06 06:09:27;;;;;;;8.75;2.90;;;;;;;16.53;57.82;100410.34;4973782;28;20031;-79
2022/02/06 06:11:53;;;;;;;9.25;3.45;;;;;;;16.52;57.82;100414.66;4975993;28;20037;-79
2022/02/06 06:14:18;;;;;;;8.88;3.10;;;;;;;16.51;57.79;100407.75;4944688;28;20438;-79
2022/02/06 06:16:44;;;;;;;9.15;3.03;;;;;;;16.53;57.64;100407.75;4977157;28;20031;-80
2022/02/06 06:19:10;;;;;;;9.48;3.15;;;;;;;16.53;58.12;100412.94;4959877;28;20062;-81
2022/02/06 06:21:41;;;;;;;9.77;3.17;;;;;;;16.51;57.87;100407.75;4964859;28;20049;-82
2022/02/06 06:24:15;;;;;;;9.52;3.08;;;;;;;16.52;57.77;100395.63;4961225;28;20038;-81
2022/02/06 06:26:42;;;;;;;7.47;2.92;;;;;;;16.51;57.96;100379.19;4954721;29;20039;-80
2022/02/06 06:29:28;;;;;;;9.32;2.72;;;;;;;16.53;57.93;100372.25;4975948;28;20077;-82
2022/02/06 06:35:16;;;;;;;8.90;2.85;;;;;;;16.53;57.66;100371.41;4986203;28;20073;-80
2022/02/06 06:37:42;;;;;;;10.32;3.25;;;;;;;16.52;57.58;100357.53;4981835;28;20070;-81
2022/02/06 06:40:09;;;;;;;10.10;3.40;;;;;;;16.52;57.56;100341.09;4970124;28;20023;-81
2022/02/06 06:42:36;;;;;;;8.35;2.97;;;;;;;16.51;57.54;100329.84;4964837;28;20401;-80
2022/02/06 06:45:02;;;;;;;9.30;3.33;;;;;;;16.50;57.65;100330.72;4975669;28;20031;-81
2022/02/06 06:47:27;;;;;;;11.18;3.75;;;;;;;16.51;57.62;100322.06;4950360;28;20045;-80
2022/02/06 06:49:53;;;;;;;8.38;3.10;;;;;;;16.50;57.38;100320.31;4985216;28;20046;-80
2022/02/06 06:52:19;;;;;;;8.13;2.70;;;;;;;16.51;57.42;100318.59;4949970;29;20090;-80
2022/02/06 06:54:48;;;;;;;9.48;3.47;;;;;;;16.52;57.45;100312.50;4973433;28;20045;-80
2022/02/06 06:57:26;;;;;;;10.10;3.70;;;;;;;16.53;57.48;100322.03;4970660;28;20439;-80
2022/02/06 07:02:35;;;;;;;8.43;3.00;;;;;;;16.50;57.30;100312.53;4978428;28;20101;-81
2022/02/06 07:05:04;;;;;;;10.30;3.47;;;;;;;16.52;57.45;100302.13;4960786;28;20474;-82
2022/02/06 07:07:33;;;;;;;9.07;3.13;;;;;;;16.52;57.30;100287.38;4962228;29;20474;-81
2022/02/06 07:10:00;;;;;;;9.35;3.33;;;;;;;16.52;57.30;100290.00;4979668;28;20039;-80
2022/02/06 07:12:26;;;;;;;9.27;3.50;;;;;;;16.53;57.39;100280.47;4962876;28;20036;-80
2022/02/06 07:14:51;;;;;;;8.77;2.67;;;;;;;16.53;57.44;100281.34;4972985;28;20057;-81
2022/02/06 07:17:18;;;;;;;8.52;3.10;;;;;;;16.55;57.54;100268.31;4964424;28;20041;-82
2022/02/06 07:19:45;;;;;;;8.77;3.03;;;;;;;16.55;57.47;100264.00;4960488;28;20490;-81
2022/02/06 07:22:15;;;;;;;8.90;3.33;;;;;;;16.55;57.27;100250.13;4985138;28;20117;-81
2022/02/06 07:24:42;;;;;;;6.78;2.90;;;;;;;16.57;57.30;100258.75;4982717;28;20030;-81
2022/02/06 07:27:19;;;;;;;6.90;2.70;;;;;;;16.58;57.42;100248.34;4948222;29;20099;-81
2022/02/06 07:29:46;;;;;;;6.38;2.63;;;;;;;16.57;57.44;100235.38;4979033;28;20034;-81
2022/02/06 07:32:11;;;;;;;7.85;2.83;;;;;;;16.59;57.63;100223.22;4982652;28;20027;-81
2022/02/06 07:34:40;;;;;;;7.55;2.72;;;;;;;16.59;57.51;100226.69;4984422;28;20070;-81
2022/02/06 07:37:06;;;;;;;6.45;2.65;;;;;;;16.59;57.59;100207.63;4968727;28;20034;-82
2022/02/06 07:39:35;;;;;;;7.95;2.92;;;;;;;16.60;57.34;100201.56;4985036;28;20046;-81
2022/02/06 07:42:00;;;;;;;7.40;2.67;;;;;;;16.60;57.34;100202.44;4980166;28;20055;-82
2022/02/06 07:44:26;;;;;;;7.93;2.67;;;;;;;16.60;57.23;100191.19;4981812;28;20018;-81
2022/02/06 07:47:01;;;;;;;7.07;2.90;;;;;;;16.60;57.36;100171.25;4995196;28;20033;-81
2022/02/06 07:49:26;;;;;;;9.77;3.15;;;;;;;16.60;57.42;100179.03;4985696;28;20043;-81
2022/02/06 07:51:52;;;;;;;5.75;2.65;;;;;;;16.60;57.45;100173.00;4968374;28;20059;-80
2022/02/06 07:54:17;;;;;;;8.88;2.80;;;;;;;16.67;57.83;100161.63;4964575;28;20387;-78
2022/02/06 07:56:43;;;;;;;12.70;2.85;;;;;;;16.83;56.42;100167.44;4979113;28;20069;-78
2022/02/06 07:59:08;;;;;;;10.02;2.97;;;;;;;16.93;56.24;100147.38;4973596;28;20047;-76
2022/02/06 08:01:34;;;;;;;15.70;3.70;;;;;;;17.00;56.13;100138.56;4976950;28;20030;-77
2022/02/06 08:03:59;;;;;;;17.02;5.40;;;;;;;17.01;56.47;100133.34;4966504;28;20063;-78
2022/02/06 08:06:24;;;;;;;17.10;4.90;;;;;;;17.02;55.90;100118.59;4960487;28;20050;-77
2022/02/06 08:08:50;;;;;;;13.52;4.40;;;;;;;17.02;55.97;100123.81;4945725;28;20397;-76
2022/02/06 08:11:16;;;;;;;16.30;4.68;;;;;;;17.04;55.70;100125.47;4975022;28;20047;-78
2022/02/06 08:13:46;;;;;;;16.25;4.78;;;;;;;17.04;55.97;100099.47;4968530;28;20054;-78
2022/02/06 08:16:11;;;;;;;17.50;4.82;;;;;;;17.04;56.02;100086.50;4970685;28;20036;-78
2022/02/06 08:18:40;;;;;;;14.68;4.35;;;;;;;17.06;55.73;100082.13;4952538;28;20039;-78
2022/02/06 08:21:10;;;;;;;12.65;4.35;;;;;;;17.07;55.96;100062.19;4947423;28;20429;-78
2022/02/06 08:23:35;;;;;;;14.52;4.22;;;;;;;17.08;55.87;100056.09;4984353;28;20358;-78
2022/02/06 08:26:03;;;;;;;9.93;4.22;;;;;;;17.08;55.85;100055.25;4989223;28;20037;-77
2022/02/06 08:28:28;;;;;;;9.30;3.95;;;;;;;17.08;55.90;100053.50;4982140;28;20033;-77
2022/02/06 08:30:54;;;;;;;15.80;4.57;;;;;;;17.09;56.09;100050.00;4984596;28;20090;-78
2022/02/06 08:33:19;;;;;;;12.55;4.10;;;;;;;17.10;56.16;100032.69;4976035;28;20031;-77
2022/02/06 08:35:47;;;;;;;12.88;4.13;;;;;;;17.11;56.70;100032.63;4950223;28;20038;-79
2022/02/06 08:38:13;;;;;;;11.43;3.95;;;;;;;17.14;56.14;100016.13;4982680;28;20035;-77
2022/02/06 08:40:39;;;;;;;16.30;4.25;;;;;;;17.19;56.12;100016.88;4981724;28;20022;-77
2022/02/06 08:43:05;;;;;;;11.10;4.18;;;;;;;17.19;55.99;100015.13;4965427;28;20031;-80
2022/02/06 08:45:31;;;;;;;13.35;4.47;;;;;;;17.21;56.52;100008.16;4949214;28;20081;-77
2022/02/06 08:47:57;;;;;;;17.55;3.95;;;;;;;17.19;56.40;100006.50;4980517;28;20478;-78
2022/02/06 08:50:23;;;;;;;15.55;4.15;;;;;;;17.18;56.30;100002.16;4981094;28;20046;-77
2022/02/06 08:52:49;;;;;;;15.30;4.63;;;;;;;17.16;56.32;99973.63;4981568;28;20018;-78
2022/02/06 08:55:15;;;;;;;14.90;4.75;;;;;;;17.16;56.35;99985.75;4981480;28;20027;-78
2022/02/06 08:57:58;;;;;;;17.48;4.13;;;;;;;17.15;56.06;99966.69;4980014;28;20109;-78
2022/02/06 09:00:25;;;;;;;;;;;;;;;17.17;56.14;99953.66;4980359;28;20030;-78
2022/02/06 09:02:51;;;;;;;13.15;3.95;;;;;;;17.17;56.07;99948.47;4979662;28;19934;-78
2022/02/06 09:05:18;;;;;;;14.38;4.20;;;;;;;17.18;56.23;99944.97;4978543;28;20039;-78
2022/02/06 09:07:44;;;;;;;13.77;3.90;;;;;;;17.18;56.19;99942.38;4980198;28;20038;-78
2022/02/06 09:10:13;;;;;;;12.85;3.95;;;;;;;17.17;56.03;99933.72;4963327;28;20094;-78
2022/02/06 09:12:43;;;;;;;17.65;4.20;;;;;;;17.18;56.08;99932.84;4979973;28;20026;-78
2022/02/06 09:15:10;;;;;;;11.13;3.30;;;;;;;17.19;55.90;99923.28;4978069;28;20183;-79
2022/02/06 09:17:35;;;;;;;8.80;3.25;;;;;;;17.19;56.02;99911.16;4977562;28;20169;-78
2022/02/06 09:20:01;;;;;;;13.00;3.85;;;;;;;17.20;55.83;99906.78;4977020;28;20027;-78
2022/02/06 09:22:26;;;;;;;11.38;3.85;;;;;;;17.20;56.01;99912.88;4961081;28;20027;-78
2022/02/06 09:24:52;;;;;;;8.25;3.50;;;;;;;17.21;55.87;99917.16;4977608;28;20034;-78
2022/02/06 09:27:17;;;;;;;10.60;3.50;;;;;;;17.21;55.99;99900.72;4978131;28;20035;-78
2022/02/06 09:29:42;;;;;;;10.85;3.80;;;;;;;17.20;55.92;99884.28;4977557;28;20030;-77
2022/02/06 09:37:07;;;;;;;8.77;3.45;;;;;;;17.22;56.14;99879.88;4960473;28;20031;-78
2022/02/06 09:39:38;;;;;;;9.50;3.20;;;;;;;17.23;55.72;99860.78;4978232;28;20027;-78
2022/02/06 09:42:04;;;;;;;12.35;3.80;;;;;;;17.25;55.83;99865.97;4976838;28;20031;-78
2022/02/06 09:44:30;;;;;;;8.48;3.30;;;;;;;17.25;55.68;99821.75;4959615;28;20027;-78
2022/02/06 09:46:58;;;;;;;7.63;3.30;;;;;;;17.24;55.76;99846.03;4980716;28;20029;-80
2022/02/06 09:49:25;;;;;;;8.45;3.40;;;;;;;17.24;55.56;99841.69;4983173;28;20035;-79
2022/02/06 09:51:51;;;;;;;12.40;3.40;;;;;;;17.25;55.70;99852.97;4964608;28;20117;-80
2022/02/06 09:54:18;;;;;;;8.18;3.30;;;;;;;17.25;55.83;99842.56;4977286;28;20054;-79
2022/02/06 09:56:48;;;;;;;8.95;3.17;;;;;;;17.26;55.75;99829.50;4976017;28;20556;-78
2022/02/06 09:59:21;;;;;;;8.98;3.47;;;;;;;17.26;56.17;99816.50;4976595;28;20036;-79
2022/02/06 10:01:56;;;;;;;6.97;2.92;;;;;;;17.28;56.23;99819.06;4976164;28;20026;-80
2022/02/06 10:04:34;;;;;;;9.20;3.53;;;;;;;17.30;56.27;99819.03;4976223;28;20042;-79
2022/02/06 10:07:12;;;;;;;9.82;3.60;;;;;;;17.30;56.31;99819.03;4975901;28;20054;-78
2022/02/06 10:09:45;;;;;;;9.57;3.20;;;;;;;17.29;56.35;99794.78;4975921;28;20341;-78
2022/02/06 10:12:13;;;;;;;8.38;3.30;;;;;;;17.31;56.37;99807.72;4977005;28;20042;-78
2022/02/06 10:14:39;;;;;;;9.23;3.10;;;;;;;17.32;56.18;99827.66;4976635;28;20120;-78
2022/02/06 10:17:05;;;;;;;8.70;2.67;;;;;;;17.32;56.34;99818.09;4960486;28;20034;-78
2022/02/06 10:19:31;;;;;;;8.60;3.15;;;;;;;17.36;55.94;99822.34;4959761;28;20027;-77
2022/02/06 10:21:57;;;;;;;10.13;3.53;;;;;;;17.50;56.08;99819.38;4978291;28;20023;-76
2022/02/06 10:24:32;;;;;;;13.57;3.47;;;;;;;17.57;57.66;99809.69;4963483;28;20082;-77
2022/02/06 10:29:50;;;;;;;9.93;3.30;;;;;;;17.39;57.83;99822.25;4978817;28;20468;-78
2022/02/06 10:32:18;;;;;;;11.73;3.72;;;;;;;17.31;57.57;99977.63;4964297;28;20381;-78
2022/02/06 10:34:44;;;;;;;8.10;3.15;;;;;;;17.27;58.31;99986.38;4976040;28;20405;-77
2022/02/06 10:37:19;;;;;;;7.55;3.13;;;;;;;17.23;57.72;99962.19;4977507;28;20031;-78
2022/02/06 10:40:06;;;;;;;7.88;3.38;;;;;;;17.20;57.99;99964.00;4976758;28;20030;-77
2022/02/06 10:42:34;;;;;;;8.32;3.03;;;;;;;17.17;58.06;99964.91;4974528;28;20037;-77
2022/02/06 10:45:20;;;;;;;9.60;2.60;;;;;;;17.17;57.84;99969.28;4976068;28;20474;-77
2022/02/06 10:47:48;;;;;;;11.02;3.05;;;;;;;17.15;57.89;99965.84;4973829;28;20062;-78
2022/02/06 10:50:29;;;;;;;7.00;3.05;;;;;;;17.15;57.89;99952.84;4974301;28;20512;-78
2022/02/06 10:53:09;;;;;;;7.47;2.70;;;;;;;17.13;58.11;99952.88;4974346;28;20022;-78
2022/02/06 10:55:35;;;;;;;8.10;2.72;;;;;;;17.12;58.36;99958.97;4974181;28;20027;-78
2022/02/06 10:58:04;;;;;;;7.55;2.97;;;;;;;17.12;58.46;99955.53;4973890;28;20462;-78
2022/02/06 11:00:33;;;;;;;7.63;2.97;;;;;;;17.13;58.46;99962.41;4974615;28;20022;-78
2022/02/06 11:03:20;;;;;;;8.75;2.88;;;;;;;17.12;58.38;99968.53;4973859;28;20065;-78
2022/02/06 11:05:53;;;;;;;8.40;3.03;;;;;;;17.12;58.78;99960.72;4974224;28;20026;-78
2022/02/06 11:08:29;;;;;;;7.43;2.60;;;;;;;17.14;58.41;99957.19;4976093;28;20085;-78
2022/02/06 11:11:06;;;;;;;8.13;2.58;;;;;;;17.13;59.16;99955.47;4975469;28;20029;-78
2022/02/06 11:13:32;;;;;;;6.97;2.63;;;;;;;17.13;58.73;99952.88;4975336;28;20038;-78
2022/02/06 11:16:03;;;;;;;6.63;2.83;;;;;;;17.13;58.61;99957.22;4974242;28;20133;-78
2022/02/06 11:18:33;;;;;;;6.30;2.42;;;;;;;17.14;58.63;99965.00;4974512;28;20037;-78
2022/02/06 11:21:05;;;;;;;5.43;2.30;;;;;;;17.14;58.46;99962.41;4974414;28;20069;-78
2022/02/06 11:23:36;;;;;;;6.28;2.53;;;;;;;17.15;58.58;99964.09;4975238;28;20023;-78
2022/02/06 11:26:03;;;;;;;8.30;2.30;;;;;;;17.17;58.34;99964.06;4974282;28;20165;-77
2022/02/06 11:28:29;;;;;;;4.72;2.30;;;;;;;17.18;58.53;99963.16;4973860;28;20189;-77
2022/02/06 11:30:54;;;;;;;5.43;2.20;;;;;;;17.18;58.22;99957.97;4973833;28;20030;-77
2022/02/06 11:33:21;;;;;;;5.63;2.22;;;;;;;17.21;58.87;99921.50;4974164;28;20030;-78
2022/02/06 11:35:55;;;;;;;5.00;2.17;;;;;;;17.19;58.41;99921.53;4942065;28;20075;-77
2022/02/06 11:44:13;;;;;;;;;;;;;;;17.24;59.46;99968.25;4977293;28;20037;-79
2022/02/06 11:46:56;;;;;;;8.45;2.22;;;;;;;17.25;59.11;99969.97;4977227;28;19914;-77
2022/02/06 11:49:22;;;;;;;5.78;2.20;;;;;;;17.25;58.95;99963.00;4977122;28;20030;-77
2022/02/06 11:51:57;;;;;;;6.60;2.20;;;;;;;17.25;59.10;99976.00;4960647;28;20046;-78
2022/02/06 11:54:44;;;;;;;6.75;2.30;;;;;;;17.26;59.54;99961.25;4976151;28;20058;-77
2022/02/06 11:57:33;;;;;;;11.18;2.72;;;;;;;17.27;59.53;99961.22;4976240;28;20047;-78
2022/02/06 12:00:07;;;;;;;9.35;2.63;;;;;;;17.28;59.19;99949.94;4977548;28;20030;-78
2022/02/06 12:02:34;;;;;;;5.72;2.58;;;;;;;17.28;59.32;99960.34;4978354;28;20084;-78
2022/02/06 12:05:09;;;;;;;7.30;2.53;;;;;;;17.31;59.94;99955.94;4977991;28;20038;-77
2022/02/06 12:07:52;;;;;;;6.85;2.60;;;;;;;17.32;60.19;99952.47;4977544;28;20037;-78
2022/02/06 12:10:50;;;;;;;5.20;2.28;;;;;;;17.35;60.26;99952.41;4978563;28;20066;-78
2022/02/06 12:13:33;;;;;;;7.57;2.42;;;;;;;17.35;60.25;99958.44;4970433;28;20035;-78
2022/02/06 12:16:02;;;;;;;5.57;2.30;;;;;;;17.37;60.40;99959.28;4978472;28;20105;-77
2022/02/06 12:18:30;;;;;;;6.43;2.28;;;;;;;17.37;60.56;99954.06;4980602;28;20030;-78
2022/02/06 12:21:07;;;;;;;9.05;2.38;;;;;;;17.37;60.54;99959.28;4988271;28;20019;-78
2022/02/06 12:23:40;;;;;;;5.57;2.20;;;;;;;17.37;60.54;99956.66;4985913;28;20138;-77
2022/02/06 12:26:31;;;;;;;6.47;2.08;;;;;;;17.37;60.32;99961.88;4984820;28;20054;-77
2022/02/06 12:29:15;;;;;;;5.75;2.10;;;;;;;17.34;60.54;99956.75;4989288;28;20380;-77
2022/02/06 12:31:53;;;;;;;5.30;2.20;;;;;;;17.34;60.29;99967.16;4986167;28;20023;-78
2022/02/06 12:37:33;;;;;;;5.93;1.92;;;;;;;17.35;60.35;99981.00;4956640;28;20039;-78
2022/02/06 12:40:10;;;;;;;4.30;1.90;;;;;;;17.35;60.87;99965.41;4967483;28;20069;-78
2022/02/06 12:42:40;;;;;;;5.80;1.90;;;;;;;17.35;60.15;99975.81;4983421;28;20026;-77
2022/02/06 12:45:13;;;;;;;4.30;1.70;;;;;;;17.34;60.08;99972.34;4982282;28;20022;-77
2022/02/06 12:47:45;;;;;;;4.75;1.90;;;;;;;17.37;60.36;99971.44;4963737;28;20500;-77
2022/02/06 12:50:26;;;;;;;9.57;1.90;;;;;;;17.37;60.24;99969.69;4980583;28;20029;-77
2022/02/06 12:52:53;;;;;;;8.05;2.38;;;;;;;17.39;60.51;99980.91;4981111;28;20083;-76
2022/02/06 12:55:20;;;;;;;5.65;1.90;;;;;;;17.43;60.37;99971.28;4980367;28;20038;-77
2022/02/06 12:57:50;;;;;;;6.80;2.20;;;;;;;17.44;60.69;99978.19;4962488;29;20456;-78
2022/02/06 13:00:50;;;;;;;6.63;2.22;;;;;;;17.45;60.48;99985.97;4963017;29;20032;-76
2022/02/06 13:03:31;;;;;;;10.80;2.40;;;;;;;17.52;61.76;99981.47;4963537;29;20026;-77
2022/02/06 13:06:06;;;;;;;9.10;1.92;;;;;;;18.07;61.23;99981.94;4949764;29;20038;-77
2022/02/06 13:08:37;;;;;;;6.82;1.55;;;;;;;17.93;61.36;99979.69;4946605;29;20389;-78
2022/02/06 13:11:08;;;;;;;11.90;2.35;;;;;;;17.75;62.02;99970.56;4946639;29;20038;-78
2022/02/06 13:13:41;;;;;;;7.15;1.83;;;;;;;17.65;62.32;99974.25;4961375;29;20061;-78
2022/02/06 13:16:33;;;;;;;4.95;1.90;;;;;;;17.58;62.84;99981.34;4961568;29;20023;-78
2022/02/06 13:21:52;;;;;;;6.22;2.00;;;;;;;17.51;63.16;99977.19;4960894;29;20118;-77
2022/02/06 13:27:36;;;;;;;7.50;1.90;;;;;;;17.47;62.33;99999.78;4962351;29;20063;-79
2022/02/06 13:32:39;;;;;;;6.95;1.80;;;;;;;17.49;62.13;99984.16;4944264;29;20043;-78
2022/02/06 13:37:44;;;;;;;5.57;1.92;;;;;;;17.45;62.38;99993.78;4961106;29;20035;-78
2022/02/06 13:40:16;;;;;;;6.75;2.00;;;;;;;17.44;62.17;100010.28;4928265;29;20389;-77
2022/02/06 13:43:02;;;;;;;8.20;1.90;;;;;;;17.45;62.12;99996.38;4943992;29;20038;-77
2022/02/06 13:45:29;;;;;;;7.53;1.80;;;;;;;17.43;62.25;100008.56;4959539;29;20031;-77
2022/02/06 13:47:56;;;;;;;6.82;2.03;;;;;;;17.40;61.94;100021.63;4942792;29;20064;-77
2022/02/06 13:50:25;;;;;;;4.90;1.70;;;;;;;17.42;61.92;100018.97;4943685;29;20038;-77
2022/02/06 13:53:12;;;;;;;4.88;1.83;;;;;;;17.40;62.11;100019.03;4943045;29;20063;-78
2022/02/06 13:55:44;;;;;;;4.50;1.70;;;;;;;17.41;61.87;100025.94;4960680;29;20502;-77
2022/02/06 13:58:15;;;;;;;3.97;1.40;;;;;;;17.41;61.78;100032.88;4978332;28;20138;-79
2022/02/06 14:01:04;;;;;;;3.92;1.52;;;;;;;17.41;61.69;100033.75;4961402;28;20023;-78
2022/02/06 14:03:47;;;;;;;6.65;1.70;;;;;;;17.42;61.70;100037.19;4962217;28;20026;-77
2022/02/06 14:06:16;;;;;;;6.38;1.90;;;;;;;17.42;61.72;100030.28;4979390;28;20397;-78
2022/02/06 14:09:08;;;;;;;7.90;1.90;;;;;;;17.45;61.80;100029.34;4963420;28;20489;-78
2022/02/06 14:11:35;;;;;;;6.93;1.50;;;;;;;17.43;61.60;100042.38;4978837;28;20033;-77
2022/02/06 14:14:20;;;;;;;5.78;1.48;;;;;;;17.42;61.77;100035.47;4962915;28;20098;-77
2022/02/06 14:16:51;;;;;;;4.18;1.90;;;;;;;17.41;61.72;100044.16;4979027;28;20086;-77
2022/02/06 14:19:44;;;;;;;4.53;1.80;;;;;;;17.40;61.83;100049.41;4962339;28;20026;-77